Details for Ryanair at EDFH




Go Back


Latest METAR
Local Time

EDFH 252150Z 11007KT CAVOK 16/13 Q1019

26/05/2018, 00:25:08

Description
Results
Ryanair Logo
Number of Pilots based at EDFH
0 Pilots Based here
Number of Ryanair Flights Departed from EDFH
2 Flights Departed
Number of Ryanair Flights Arrived at EDFH
2 Flights Arrived
Number of Ryanair Schedules Departing from EDFH
77 Schedules
Number of Ryanair Schedules Arriving at EDFH
76 Schedules
Number of Ryanair Schedules Departing from EDFH availible today
17 Schedules Today
Number of Ryanair Schedules Arriving at EDFH availible today
17 Schedules Today
Average Landing Rate at EDFH
-185 fpm
Ryanair Average Landing Rate at EDFH
-185 fpm
Total Fuel Purchased at EDFH by Ryanair
11,196.02 kgs / 24,682.75 lbs

Pilots Based at EDFH


Pilot ID
Pilot Name
Pilot Rank
No. of Flights
No. of Flying Hours
There are no pilots assigned to this hub!   Will you be the first?
Content